Capewater — PBPQ — position and weather

sailwx.info

Track history (hours):
 
Tides and Currents Weather Stations Pressure Air Temp Water Temp Dewpoint Dewpoint Depression Visibility Wind Speed Wind Dir Waves Ship Positions

Capewater

Last reported at 2017-Jun-26 13:30 UTC. Time now 2017-Jun-26 14:08 UTC.
Position N 51°53' E 004°21'.

Length 100 m; draft 5.7 m.

Type: Tanker. MMSI: 246346000.

Date/timePositionNaut miles runAvg speedWind from/ knotsBaromVisibWave heightAir tempDewpointWater temp
2017-Jun-26 13:30N 51°53' E 004°21'0 0.0
2017-Jun-26 13:00N 51°53' E 004°21'0 0.0
2017-Jun-26 12:30N 51°53' E 004°21'0 0.0
2017-Jun-26 12:00N 51°53' E 004°21'0 0.0
2017-Jun-26 11:30N 51°53' E 004°21'0 0.0
2017-Jun-26 11:00N 51°53' E 004°21'0 0.0
2017-Jun-26 10:30N 51°53' E 004°21'0 0.0
2017-Jun-26 10:00N 51°53' E 004°21'0 0.0
2017-Jun-26 09:30N 51°53' E 004°21'0 0.0
2017-Jun-26 09:00N 51°53' E 004°21'0 0.0
2017-Jun-26 08:29N 51°53' E 004°21'0 0.0
2017-Jun-26 07:58N 51°53' E 004°21'0 0.0
2017-Jun-26 07:29N 51°53' E 004°21'0 0.0
2017-Jun-26 07:00N 51°53' E 004°21'0 0.0
2017-Jun-26 06:28N 51°53' E 004°21'0 0.0
2017-Jun-26 05:58N 51°53' E 004°21'0 0.0
2017-Jun-26 05:29N 51°53' E 004°21'0 0.0
2017-Jun-26 05:00N 51°53' E 004°21'0 0.0
2017-Jun-26 04:29N 51°53' E 004°21'0 0.0
2017-Jun-26 03:59N 51°53' E 004°21'0 0.0
2017-Jun-26 03:30N 51°53' E 004°21'0 0.0
2017-Jun-26 03:00N 51°53' E 004°21'0 0.0
2017-Jun-26 02:29N 51°53' E 004°21'0 0.0
2017-Jun-26 02:00N 51°53' E 004°21'0 0.0
2017-Jun-26 01:30N 51°53' E 004°21'0 0.0
2017-Jun-26 01:00N 51°53' E 004°21'0 0.0
2017-Jun-26 00:30N 51°53' E 004°21'0 0.0
2017-Jun-26 00:00N 51°53' E 004°21'0 0.0
2017-Jun-25 23:30N 51°53' E 004°21'0 0.0
2017-Jun-25 23:00N 51°53' E 004°21'0 0.0
2017-Jun-25 22:30N 51°53' E 004°21'0 0.0
2017-Jun-25 21:59N 51°53' E 004°21'0 0.0
2017-Jun-25 21:30N 51°53' E 004°21'0 0.0
2017-Jun-25 21:00N 51°53' E 004°21'0 0.0
2017-Jun-25 20:30N 51°53' E 004°21'0 0.0
2017-Jun-25 20:00N 51°53' E 004°21'0 0.0
2017-Jun-25 19:28N 51°53' E 004°21'0 0.0
2017-Jun-25 19:00N 51°53' E 004°21'1 1.6
2017-Jun-25 18:30N 51°53' E 004°19'3 7.0
2017-Jun-25 18:00N 51°51' E 004°23'5 9.9
2017-Jun-25 17:30N 51°50' E 004°31'4 8.0
2017-Jun-25 17:00N 51°48' E 004°36'1 2.9
2017-Jun-25 16:30N 51°48' E 004°39'0 0.0
2017-Jun-25 16:01N 51°48' E 004°39'0 0.0
2017-Jun-25 15:31N 51°48' E 004°39'0 0.0
2017-Jun-25 15:00N 51°48' E 004°39'0 0.0
2017-Jun-25 14:00N 51°48' E 004°39'0 0.0
2017-Jun-25 13:30N 51°48' E 004°39'0 0.0
2017-Jun-25 13:01N 51°48' E 004°39'0 0.0
2017-Jun-25 12:30N 51°48' E 004°39'0 0.0
2017-Jun-25 12:00N 51°48' E 004°39'0 0.0
2017-Jun-25 11:30N 51°48' E 004°39'0 0.0
2017-Jun-25 11:00N 51°48' E 004°39'0 0.0
2017-Jun-25 10:30N 51°48' E 004°39'0 0.0
2017-Jun-25 10:01N 51°48' E 004°39'0 0.0
2017-Jun-25 09:30N 51°48' E 004°39'0 0.0
2017-Jun-25 09:00N 51°48' E 004°39'0 0.0
2017-Jun-25 08:31N 51°48' E 004°39'0 0.0
2017-Jun-25 08:00N 51°48' E 004°39'0 0.0
2017-Jun-25 07:30N 51°48' E 004°39'0 0.0
2017-Jun-25 07:00N 51°48' E 004°39'0 0.0
2017-Jun-25 06:30N 51°48' E 004°39'0 0.0
2017-Jun-25 06:00N 51°48' E 004°39'0 0.0
2017-Jun-25 05:30N 51°48' E 004°39'0 0.0
2017-Jun-25 05:00N 51°48' E 004°39'0 0.0
2017-Jun-25 04:31N 51°48' E 004°39'0 0.0
2017-Jun-25 04:01N 51°48' E 004°39'0 0.0
2017-Jun-25 03:31N 51°48' E 004°39'0 0.0
2017-Jun-25 03:01N 51°48' E 004°39'0 0.0
2017-Jun-25 02:31N 51°48' E 004°39'0 0.0
2017-Jun-25 02:01N 51°48' E 004°39'0 0.0
2017-Jun-25 01:31N 51°48' E 004°39'0 0.0
2017-Jun-25 01:01N 51°48' E 004°39'0 0.0
2017-Jun-25 00:31N 51°48' E 004°39'0 0.0
2017-Jun-25 00:01N 51°48' E 004°39'0 0.0
2017-Jun-24 23:31N 51°48' E 004°39'0 0.0
2017-Jun-24 23:01N 51°48' E 004°39'0 0.0
2017-Jun-24 22:31N 51°48' E 004°39'0 0.0
2017-Jun-24 22:01N 51°48' E 004°39'0 0.0
2017-Jun-24 21:31N 51°48' E 004°39'0 0.0
2017-Jun-24 21:01N 51°48' E 004°39'0 0.0
2017-Jun-24 20:31N 51°48' E 004°39'0 0.0
2017-Jun-24 20:01N 51°48' E 004°39'0 0.0
2017-Jun-24 19:31N 51°48' E 004°39'0 0.0
2017-Jun-24 19:01N 51°48' E 004°39'0 0.0
2017-Jun-24 18:31N 51°48' E 004°39'0 0.0
2017-Jun-24 18:00N 51°48' E 004°39'0 0.0
2017-Jun-24 17:30N 51°48' E 004°39'0 0.0
2017-Jun-24 17:00N 51°48' E 004°39'0 0.0
2017-Jun-24 16:30N 51°48' E 004°39'0 0.0
2017-Jun-24 16:00N 51°48' E 004°39'0 0.0
2017-Jun-24 15:30N 51°48' E 004°39'0 0.0
2017-Jun-24 15:00N 51°48' E 004°39'0 0.0
2017-Jun-24 14:01N 51°48' E 004°39'0 0.0
2017-Jun-24 13:30N 51°48' E 004°39'0 0.0
2017-Jun-24 13:00N 51°48' E 004°39'0 0.0
2017-Jun-24 12:31N 51°48' E 004°39'0 0.0
2017-Jun-24 12:01N 51°48' E 004°39'0 0.0
2017-Jun-24 11:30N 51°48' E 004°39'0 0.0
2017-Jun-24 11:01N 51°48' E 004°39'0 0.0
2017-Jun-24 10:31N 51°48' E 004°39'0 0.0
2017-Jun-24 10:00N 51°48' E 004°39'0 0.0
2017-Jun-24 09:31N 51°48' E 004°39'0 0.0
2017-Jun-24 09:00N 51°48' E 004°39'0 0.0
2017-Jun-24 08:31N 51°48' E 004°39'0 0.0
2017-Jun-24 08:01N 51°48' E 004°39'0 0.0
2017-Jun-24 07:30N 51°48' E 004°39'0 0.0
2017-Jun-24 07:01N 51°48' E 004°39'0 0.0
2017-Jun-24 06:31N 51°48' E 004°39'0 0.0
2017-Jun-24 06:01N 51°48' E 004°39'0 0.0
2017-Jun-24 05:31N 51°48' E 004°39'0 0.0
2017-Jun-24 05:01N 51°48' E 004°39'0 0.0
2017-Jun-24 04:31N 51°48' E 004°39'0 0.0
2017-Jun-24 04:00N 51°48' E 004°39'0 0.0
2017-Jun-24 03:30N 51°48' E 004°39'0 0.0
2017-Jun-24 03:01N 51°48' E 004°39'0 0.0
2017-Jun-24 02:31N 51°48' E 004°39'0 0.0
2017-Jun-24 02:01N 51°48' E 004°39'0 0.0
2017-Jun-24 01:31N 51°48' E 004°39'0 0.0
2017-Jun-24 01:01N 51°48' E 004°39'0 0.0
2017-Jun-24 00:31N 51°48' E 004°39'0 0.0
2017-Jun-24 00:01N 51°48' E 004°39'0 0.0
2017-Jun-23 23:31N 51°48' E 004°39'0 0.0
2017-Jun-23 23:01N 51°48' E 004°39'0 0.0
2017-Jun-23 22:31N 51°48' E 004°39'0 0.0
2017-Jun-23 22:00N 51°48' E 004°39'0 0.0
2017-Jun-23 21:31N 51°48' E 004°39'0 0.0
2017-Jun-23 21:00N 51°48' E 004°39'0 0.0
2017-Jun-23 20:30N 51°48' E 004°39'0 0.0
2017-Jun-23 20:01N 51°48' E 004°39'0 0.0
2017-Jun-23 19:30N 51°48' E 004°39'0 0.0
2017-Jun-23 19:01N 51°48' E 004°39'0 0.0
2017-Jun-23 18:30N 51°48' E 004°39'0 0.0
2017-Jun-23 18:01N 51°48' E 004°39'0 0.0
2017-Jun-23 17:30N 51°48' E 004°39'0 0.0
2017-Jun-23 17:00N 51°48' E 004°39'0 0.0
2017-Jun-23 16:30N 51°48' E 004°39'0 0.0
2017-Jun-23 16:00N 51°48' E 004°39'0 0.0
2017-Jun-23 15:30N 51°48' E 004°39'0 0.0
2017-Jun-23 15:01N 51°48' E 004°39'0 0.0
2017-Jun-23 14:00N 51°48' E 004°39'0 0.0
2017-Jun-23 13:30N 51°48' E 004°39'0 0.0
2017-Jun-23 13:00N 51°48' E 004°39'0 0.0
2017-Jun-23 12:31N 51°48' E 004°39'0 0.0
2017-Jun-23 12:00N 51°48' E 004°39'0 0.0
2017-Jun-23 11:31N 51°48' E 004°39'0 0.0
2017-Jun-23 11:00N 51°48' E 004°39'0 0.0
2017-Jun-23 10:30N 51°48' E 004°39'0 0.0
2017-Jun-23 10:00N 51°48' E 004°39'0 0.0
2017-Jun-23 09:30N 51°48' E 004°39'0 0.0
2017-Jun-23 09:00N 51°48' E 004°39'0 0.0
2017-Jun-23 08:30N 51°48' E 004°39'0 0.0
2017-Jun-23 08:00N 51°48' E 004°39'0 0.0
2017-Jun-23 07:30N 51°48' E 004°39'0 0.0
2017-Jun-23 07:00N 51°48' E 004°39'0 0.0
2017-Jun-23 06:31N 51°48' E 004°39'0 0.0
2017-Jun-23 06:01N 51°48' E 004°39'0 0.0
2017-Jun-23 05:30N 51°48' E 004°39'0 0.0
2017-Jun-23 05:00N 51°48' E 004°39'0 0.0
2017-Jun-23 04:31N 51°48' E 004°39'0 0.0
2017-Jun-23 04:01N 51°48' E 004°39'0 0.0
2017-Jun-23 03:30N 51°48' E 004°39'0 0.0
2017-Jun-23 03:01N 51°48' E 004°39'0 0.0
2017-Jun-23 02:30N 51°48' E 004°39'0 0.0
2017-Jun-23 02:01N 51°48' E 004°39'0 0.0
2017-Jun-23 01:31N 51°48' E 004°39'0 0.0
2017-Jun-23 01:01N 51°48' E 004°39'0 0.0
2017-Jun-23 00:30N 51°48' E 004°39'0 0.0
2017-Jun-23 00:00N 51°48' E 004°39'0 0.0
2017-Jun-22 23:31N 51°48' E 004°39'0 0.0
2017-Jun-22 23:00N 51°48' E 004°39'0 0.0
2017-Jun-22 22:31N 51°48' E 004°39'0 0.0
2017-Jun-22 22:00N 51°48' E 004°39'0 0.0
2017-Jun-22 21:31N 51°48' E 004°39'0 0.0
2017-Jun-22 21:00N 51°48' E 004°39'0 0.0
2017-Jun-22 20:31N 51°48' E 004°39'0 0.0
2017-Jun-22 20:00N 51°48' E 004°39'0 0.0
2017-Jun-22 19:31N 51°48' E 004°39'0 0.0
2017-Jun-22 19:00N 51°48' E 004°39'0 0.0
2017-Jun-22 18:30N 51°48' E 004°39'0 0.0
2017-Jun-22 18:01N 51°48' E 004°39'0 0.0
2017-Jun-22 17:31N 51°48' E 004°39'0 0.0
2017-Jun-22 17:01N 51°48' E 004°39'0 0.0
2017-Jun-22 16:31N 51°48' E 004°39'0 0.0
2017-Jun-22 16:01N 51°48' E 004°39'0 0.0
2017-Jun-22 15:30N 51°48' E 004°39'0 0.0
2017-Jun-22 15:00N 51°48' E 004°39'0 0.0
2017-Jun-22 14:01N 51°48' E 004°39'0 0.0
2017-Jun-22 13:31N 51°48' E 004°39'0 0.0
2017-Jun-22 13:00N 51°48' E 004°39'0 0.0
2017-Jun-22 12:30N 51°48' E 004°39'0 0.0
2017-Jun-22 12:01N 51°48' E 004°39'0 0.0
2017-Jun-22 11:30N 51°48' E 004°39'0 0.0
2017-Jun-22 11:00N 51°48' E 004°39'0 0.0
2017-Jun-22 10:31N 51°48' E 004°39'0 0.0
2017-Jun-22 10:00N 51°48' E 004°39'0 0.0
2017-Jun-22 09:31N 51°48' E 004°39'0 0.0
2017-Jun-22 09:01N 51°48' E 004°39'0 0.0
2017-Jun-22 08:31N 51°48' E 004°39'0 0.0
2017-Jun-22 08:00N 51°48' E 004°39'0 0.0
2017-Jun-22 07:31N 51°48' E 004°39'0 0.0
2017-Jun-22 07:01N 51°48' E 004°39'0 0.0
2017-Jun-22 06:31N 51°48' E 004°39'0 0.0
2017-Jun-22 06:01N 51°48' E 004°39'0 0.0
2017-Jun-22 05:31N 51°48' E 004°39'0 0.0
2017-Jun-22 05:01N 51°48' E 004°39'0 0.0
2017-Jun-22 04:31N 51°48' E 004°39'0 0.0
2017-Jun-22 04:00N 51°48' E 004°39'0 0.0
2017-Jun-22 03:31N 51°48' E 004°39'0 0.0
2017-Jun-22 03:01N 51°48' E 004°39'0 0.0
2017-Jun-22 02:31N 51°48' E 004°39'0 0.0
2017-Jun-22 02:01N 51°48' E 004°39'0 0.0
2017-Jun-22 01:30N 51°48' E 004°39'0 0.0
2017-Jun-22 01:01N 51°48' E 004°39'0 0.0
2017-Jun-22 00:31N 51°48' E 004°39'0 0.0
2017-Jun-22 00:01N 51°48' E 004°39'0 0.0
2017-Jun-21 23:31N 51°48' E 004°39'0 0.0
2017-Jun-21 23:01N 51°48' E 004°39'0 0.0
2017-Jun-21 22:31N 51°48' E 004°39'0 0.0
2017-Jun-21 22:01N 51°48' E 004°39'0 0.0
2017-Jun-21 21:30N 51°48' E 004°39'0 0.0
2017-Jun-21 21:00N 51°48' E 004°39'0 0.0
2017-Jun-21 20:31N 51°48' E 004°39'0 0.0
2017-Jun-21 20:00N 51°48' E 004°39'0 0.0
2017-Jun-21 19:31N 51°48' E 004°39'0 0.2
2017-Jun-21 19:01N 51°48' E 004°39'1 1.0
2017-Jun-21 18:30N 51°47' E 004°38'0 0.0
2017-Jun-21 18:00N 51°47' E 004°38'0 0.0
2017-Jun-21 17:30N 51°47' E 004°38'0 0.0
2017-Jun-21 17:00N 51°47' E 004°38'0 0.0
2017-Jun-21 16:30N 51°47' E 004°38'0 0.0
2017-Jun-21 16:00N 51°47' E 004°38'0 0.0
2017-Jun-21 15:30N 51°47' E 004°38'0 0.0
2017-Jun-21 14:59N 51°47' E 004°38'0 0.0
2017-Jun-21 14:00N 51°47' E 004°38'0 0.0
2017-Jun-21 13:29N 51°47' E 004°38'0 0.0
2017-Jun-21 13:00N 51°47' E 004°38'0 0.0
2017-Jun-21 12:29N 51°47' E 004°38'0 0.0
2017-Jun-21 12:00N 51°47' E 004°38'0 0.0
2017-Jun-21 11:30N 51°47' E 004°38'0 1.0
2017-Jun-21 11:01N 51°48' E 004°38'3 5.3
2017-Jun-21 10:30N 51°49' E 004°34'3 6.2
2017-Jun-21 10:00N 51°50' E 004°30'4 7.2
2017-Jun-21 09:30N 51°51' E 004°24'4 7.1
2017-Jun-21 09:00N 51°53' E 004°20'3 6.5
2017-Jun-21 08:30N 51°55' E 004°15'4 7.5
2017-Jun-21 08:00N 51°57' E 004°10'4 8.1
2017-Jun-21 07:30N 51°59' E 004°05'612.2
2017-Jun-21 07:00N 51°60' E 003°55'4 8.9
2017-Jun-21 06:30N 52°00' E 003°48'3 5.8
2017-Jun-21 06:00N 52°03' E 003°47'5 9.2
2017-Jun-21 05:30N 52°08' E 003°46'510.0
2017-Jun-21 05:00N 52°13' E 003°47'510.2
2017-Jun-21 04:30N 52°18' E 003°47'510.4
2017-Jun-21 04:00N 52°23' E 003°49'510.1
2017-Jun-21 03:30N 52°28' E 003°50'5 9.2
2017-Jun-21 03:00N 52°33' E 003°52'5 9.6
2017-Jun-21 02:30N 52°37' E 003°53'5 9.4
2017-Jun-21 02:00N 52°42' E 003°55'5 9.5
2017-Jun-21 01:30N 52°46' E 003°56'5 9.4
2017-Jun-21 01:00N 52°51' E 003°58'510.0
2017-Jun-21 00:30N 52°56' E 004°00'611.7
2017-Jun-21 00:00N 53°00' E 004°07'713.2
2017-Jun-20 23:30N 53°05' E 004°15'713.5
2017-Jun-20 23:01N 53°09' E 004°23'713.6
2017-Jun-20 22:30N 53°15' E 004°29'714.5
2017-Jun-20 22:00N 53°22' E 004°34'714.5
2017-Jun-20 21:30N 53°28' E 004°40'815.2
2017-Jun-20 21:00N 53°31' E 004°52'815.3
2017-Jun-20 20:29N 53°34' E 005°04'715.0
2017-Jun-20 20:00N 53°36' E 005°15'714.7
2017-Jun-20 19:30N 53°39' E 005°27'8613.2
2017-Jun-20 12:59N 54°01' E 007°48'714.5
2017-Jun-20 12:29N 54°01' E 008°00'714.4
2017-Jun-20 12:00N 54°00' E 008°12'713.5
2017-Jun-20 11:30N 53°59' E 008°23'816.0
2017-Jun-20 11:00N 53°58' E 008°37'815.3
2017-Jun-20 10:30N 53°52' E 008°45'713.1
2017-Jun-20 10:00N 53°51' E 008°56'713.1
2017-Jun-20 09:30N 53°53' E 009°06'2 3.3
2017-Jun-20 09:00N 53°54' E 009°09'0 0.0
2017-Jun-20 08:30N 53°54' E 009°09'0 0.0
2017-Jun-20 08:00N 53°54' E 009°09'0 0.8
2017-Jun-20 07:30N 53°54' E 009°09'3 6.1
2017-Jun-20 07:00N 53°56' E 009°13'4 8.6
2017-Jun-20 06:30N 53°59' E 009°17'4 8.8
2017-Jun-20 06:00N 54°04' E 009°19'11 7.9
2017-Jun-20 04:34N 54°12' E 009°33'2 8.8
2017-Jun-20 04:20N 54°13' E 009°35'41 4.7
2017-Jun-19 19:31N 54°34' E 010°36'1 6.8
2017-Jun-19 19:26N 54°35' E 010°37'3 6.9
2017-Jun-19 18:59N 54°35' E 010°43'5 6.5
2017-Jun-19 18:15N 54°35' E 010°51'2 6.0
2017-Jun-19 17:56N 54°35' E 010°54'3 6.0
2017-Jun-19 17:30N 54°36' E 010°58'4 8.7
2017-Jun-19 17:00N 54°36' E 011°06'713.1
2017-Jun-19 16:30N 54°34' E 011°17'714.0
2017-Jun-19 16:01N 54°32' E 011°28'914.2
2017-Jun-19 15:23N 54°28' E 011°42'1113.1
2017-Jun-19 14:32N 54°27' E 012°01'612.4
2017-Jun-19 14:00N 54°28' E 012°12'713.6
2017-Jun-19 13:30N 54°35' E 012°15'612.6
2017-Jun-19 13:00N 54°39' E 012°22'2013.3
2017-Jun-19 11:29N 54°50' E 012°52'613.4
2017-Jun-19 11:00N 54°52' E 013°03'713.6
2017-Jun-19 10:30N 54°54' E 013°14'713.5
2017-Jun-19 09:59N 54°55' E 013°26'612.7
2017-Jun-19 09:30N 54°53' E 013°36'613.0
2017-Jun-19 09:00N 54°49' E 013°45'713.3
2017-Jun-19 08:30N 54°45' E 013°54'713.1
2017-Jun-19 08:00N 54°42' E 014°04'713.5
2017-Jun-19 07:30N 54°40' E 014°15'713.5
2017-Jun-19 07:00N 54°38' E 014°27'713.5
2017-Jun-19 06:30N 54°39' E 014°38'713.6
2017-Jun-19 06:00N 54°40' E 014°49'713.6
2017-Jun-19 05:30N 54°41' E 015°01'713.5
2017-Jun-19 05:00N 54°42' E 015°13'713.6
2017-Jun-19 04:30N 54°43' E 015°24'713.6
2017-Jun-19 04:00N 54°44' E 015°36'713.5
2017-Jun-19 03:30N 54°45' E 015°47'713.6
2017-Jun-19 03:00N 54°47' E 015°59'813.4
2017-Jun-19 02:23N 54°48' E 016°13'613.4
2017-Jun-19 01:54N 54°49' E 016°24'913.5
2017-Jun-19 01:14N 54°50' E 016°40'413.3
2017-Jun-19 00:57N 54°50' E 016°47'613.2
2017-Jun-19 00:27N 54°52' E 016°58'3912.6
2017-Jun-18 21:22N 54°60' E 018°04'512.3
2017-Jun-18 21:00N 54°60' E 018°12'612.2
2017-Jun-18 20:30N 55°00' E 018°22'612.2
2017-Jun-18 20:00N 55°00' E 018°33'510.9
2017-Jun-18 19:30N 54°58' E 018°41'612.6
2017-Jun-18 19:00N 54°53' E 018°48'713.2
2017-Jun-18 18:30N 54°48' E 018°56'613.0
2017-Jun-18 18:00N 54°41' E 018°58'713.7
2017-Jun-18 17:30N 54°35' E 018°53'713.9
2017-Jun-18 17:00N 54°30' E 018°45'611.8
2017-Jun-18 16:31N 54°25' E 018°39'2 3.9
2017-Jun-18 16:00N 54°24' E 018°41'0 0.0
2017-Jun-18 15:30N 54°24' E 018°41'0 0.0
2017-Jun-18 15:00N 54°24' E 018°41'0 0.0
2017-Jun-18 14:00N 54°24' E 018°41'0 0.0
2017-Jun-18 13:30N 54°24' E 018°41'0 0.0
2017-Jun-18 13:00N 54°24' E 018°41'0 0.0
2017-Jun-18 12:30N 54°24' E 018°41'0 0.0
2017-Jun-18 12:00N 54°24' E 018°41'0 0.0
2017-Jun-18 11:30N 54°24' E 018°41'0 0.0
2017-Jun-18 11:00N 54°24' E 018°41'0 0.0
2017-Jun-18 10:30N 54°24' E 018°41'0 0.0
2017-Jun-18 10:00N 54°24' E 018°41'0 0.0
2017-Jun-18 09:30N 54°24' E 018°41'0 0.0
2017-Jun-18 09:00N 54°24' E 018°41'0 0.0
2017-Jun-18 08:27N 54°24' E 018°41'0 0.0
2017-Jun-18 08:00N 54°24' E 018°41'0 0.0
2017-Jun-18 07:30N 54°24' E 018°41'0 0.0
2017-Jun-18 07:00N 54°24' E 018°41'0 0.0
2017-Jun-18 06:30N 54°24' E 018°41'0 0.0
2017-Jun-18 06:00N 54°24' E 018°41'0 0.0
2017-Jun-18 05:30N 54°24' E 018°41'0 0.0
2017-Jun-18 05:00N 54°24' E 018°41'0 0.0
2017-Jun-18 04:30N 54°24' E 018°41'0 0.0
2017-Jun-18 04:00N 54°24' E 018°41'0 0.0
2017-Jun-18 03:30N 54°24' E 018°41'0 0.0
2017-Jun-18 03:00N 54°24' E 018°41'0 0.0
2017-Jun-18 02:30N 54°24' E 018°41'0 0.0
2017-Jun-18 02:00N 54°24' E 018°41'0 0.0
2017-Jun-18 01:30N 54°24' E 018°41'0 0.0
2017-Jun-18 01:00N 54°24' E 018°41'0 0.0
2017-Jun-18 00:30N 54°24' E 018°41'0 0.0
2017-Jun-18 00:00N 54°24' E 018°41'0 0.0
2017-Jun-17 23:30N 54°24' E 018°41'0 0.0
2017-Jun-17 23:00N 54°24' E 018°41'0 0.0
2017-Jun-17 22:30N 54°24' E 018°41'0 0.0
2017-Jun-17 22:00N 54°24' E 018°41'0 0.0
2017-Jun-17 21:30N 54°24' E 018°41'0 0.0
2017-Jun-17 21:00N 54°24' E 018°41'0 0.0
2017-Jun-17 20:30N 54°24' E 018°41'0 0.0
2017-Jun-17 20:00N 54°24' E 018°41'0 0.0
2017-Jun-17 19:30N 54°24' E 018°41'0 0.0
2017-Jun-17 19:00N 54°24' E 018°41'0 0.0
2017-Jun-17 18:30N 54°24' E 018°41'0 0.0
2017-Jun-17 18:00N 54°24' E 018°41'0 0.0
2017-Jun-17 17:30N 54°24' E 018°41'0 0.0
2017-Jun-17 17:00N 54°24' E 018°41'0 0.0
2017-Jun-17 16:30N 54°24' E 018°41'0 0.0
2017-Jun-17 16:00N 54°24' E 018°41'0 0.0
2017-Jun-17 15:30N 54°24' E 018°41'0 0.0
2017-Jun-17 15:00N 54°24' E 018°41'0 0.0
2017-Jun-17 14:30N 54°24' E 018°41'0 0.0
2017-Jun-17 13:30N 54°24' E 018°41'0 0.0
2017-Jun-17 13:00N 54°24' E 018°41'0 0.0
2017-Jun-17 12:30N 54°24' E 018°41'0 0.0
2017-Jun-17 12:00N 54°24' E 018°41'0 0.0
2017-Jun-17 11:30N 54°24' E 018°41'0 0.0
2017-Jun-17 11:00N 54°24' E 018°41'0 0.0
2017-Jun-17 10:30N 54°24' E 018°41'0 0.0
2017-Jun-17 10:00N 54°24' E 018°41'0 0.0
2017-Jun-17 09:30N 54°24' E 018°41'0 0.0
2017-Jun-17 09:00N 54°24' E 018°41'0 0.0
2017-Jun-17 08:30N 54°24' E 018°41'0 0.0
2017-Jun-17 08:00N 54°24' E 018°41'0 0.0
2017-Jun-17 07:30N 54°24' E 018°41'0 0.0
2017-Jun-17 07:00N 54°24' E 018°41'0 0.0
2017-Jun-17 06:30N 54°24' E 018°41'0 0.0
2017-Jun-17 06:00N 54°24' E 018°41'0 0.0
2017-Jun-17 05:30N 54°24' E 018°41'0 0.0
2017-Jun-17 05:00N 54°24' E 018°41'0 0.0
2017-Jun-17 04:30N 54°24' E 018°41'0 0.0
2017-Jun-17 04:00N 54°24' E 018°41'0 0.0
2017-Jun-17 03:30N 54°24' E 018°41'0 0.0
2017-Jun-17 03:00N 54°24' E 018°41'0 0.0
2017-Jun-17 02:30N 54°24' E 018°41'0 0.0
2017-Jun-17 01:57N 54°24' E 018°41'0 0.0
2017-Jun-17 01:30N 54°24' E 018°41'0 0.0
2017-Jun-17 01:00N 54°24' E 018°41'0 0.0
2017-Jun-17 00:30N 54°24' E 018°41'0 0.0
2017-Jun-17 00:00N 54°24' E 018°41'0 0.0
2017-Jun-16 23:30N 54°24' E 018°41'0 0.0
2017-Jun-16 23:00N 54°24' E 018°41'0 0.0
2017-Jun-16 22:30N 54°24' E 018°41'0 0.0
2017-Jun-16 22:00N 54°24' E 018°41'0 0.0
2017-Jun-16 21:30N 54°24' E 018°41'0 0.0
2017-Jun-16 21:00N 54°24' E 018°41'0 0.0
2017-Jun-16 20:30N 54°24' E 018°41'0 0.0
2017-Jun-16 20:00N 54°24' E 018°41'0 0.0
2017-Jun-16 19:30N 54°24' E 018°41'0 0.0
2017-Jun-16 19:00N 54°24' E 018°41'0 0.5
2017-Jun-16 18:31N 54°24' E 018°41'3 5.3
2017-Jun-16 18:00N 54°27' E 018°40'611.6
2017-Jun-16 17:30N 54°31' E 018°46'612.4
2017-Jun-16 17:00N 54°36' E 018°53'611.7
2017-Jun-16 16:31N 54°41' E 018°57'611.1
2017-Jun-16 16:01N 54°47' E 019°00'713.5
2017-Jun-16 15:31N 54°53' E 018°59'714.3
2017-Jun-16 15:00N 55°00' E 018°57'714.3
2017-Jun-16 14:30N 55°07' E 018°55'  
Track history (hours):
 
Tides and Currents Weather Stations Pressure Air Temp Water Temp Dewpoint Dewpoint Depression Visibility Wind Speed Wind Dir Waves Ship Positions

Capewater

Last reported at 2017-Jun-26 13:30 UTC. Time now 2017-Jun-26 14:08 UTC.
Position N 51°53' E 004°21'.

Length 100 m; draft 5.7 m.

Type: Tanker. MMSI: 246346000.

Date/timePositionNaut miles runAvg speedWind from/ knotsBaromVisibWave heightAir tempDewpointWater temp
2017-Jun-26 13:30N 51°53' E 004°21'0 0.0
2017-Jun-26 13:00N 51°53' E 004°21'0 0.0
2017-Jun-26 12:30N 51°53' E 004°21'0 0.0
2017-Jun-26 12:00N 51°53' E 004°21'0 0.0
2017-Jun-26 11:30N 51°53' E 004°21'0 0.0
2017-Jun-26 11:00N 51°53' E 004°21'0 0.0
2017-Jun-26 10:30N 51°53' E 004°21'0 0.0
2017-Jun-26 10:00N 51°53' E 004°21'0 0.0
2017-Jun-26 09:30N 51°53' E 004°21'0 0.0
2017-Jun-26 09:00N 51°53' E 004°21'0 0.0
2017-Jun-26 08:29N 51°53' E 004°21'0 0.0
2017-Jun-26 07:58N 51°53' E 004°21'0 0.0
2017-Jun-26 07:29N 51°53' E 004°21'0 0.0
2017-Jun-26 07:00N 51°53' E 004°21'0 0.0
2017-Jun-26 06:28N 51°53' E 004°21'0 0.0
2017-Jun-26 05:58N 51°53' E 004°21'0 0.0
2017-Jun-26 05:29N 51°53' E 004°21'0 0.0
2017-Jun-26 05:00N 51°53' E 004°21'0 0.0
2017-Jun-26 04:29N 51°53' E 004°21'0 0.0
2017-Jun-26 03:59N 51°53' E 004°21'0 0.0
2017-Jun-26 03:30N 51°53' E 004°21'0 0.0
2017-Jun-26 03:00N 51°53' E 004°21'0 0.0
2017-Jun-26 02:29N 51°53' E 004°21'0 0.0
2017-Jun-26 02:00N 51°53' E 004°21'0 0.0
2017-Jun-26 01:30N 51°53' E 004°21'0 0.0
2017-Jun-26 01:00N 51°53' E 004°21'0 0.0
2017-Jun-26 00:30N 51°53' E 004°21'0 0.0
2017-Jun-26 00:00N 51°53' E 004°21'0 0.0
2017-Jun-25 23:30N 51°53' E 004°21'0 0.0
2017-Jun-25 23:00N 51°53' E 004°21'0 0.0
2017-Jun-25 22:30N 51°53' E 004°21'0 0.0
2017-Jun-25 21:59N 51°53' E 004°21'0 0.0
2017-Jun-25 21:30N 51°53' E 004°21'0 0.0
2017-Jun-25 21:00N 51°53' E 004°21'0 0.0
2017-Jun-25 20:30N 51°53' E 004°21'0 0.0
2017-Jun-25 20:00N 51°53' E 004°21'0 0.0
2017-Jun-25 19:28N 51°53' E 004°21'0 0.0
2017-Jun-25 19:00N 51°53' E 004°21'1 1.6
2017-Jun-25 18:30N 51°53' E 004°19'3 7.0
2017-Jun-25 18:00N 51°51' E 004°23'5 9.9
2017-Jun-25 17:30N 51°50' E 004°31'4 8.0
2017-Jun-25 17:00N 51°48' E 004°36'1 2.9
2017-Jun-25 16:30N 51°48' E 004°39'0 0.0
2017-Jun-25 16:01N 51°48' E 004°39'0 0.0
2017-Jun-25 15:31N 51°48' E 004°39'0 0.0
2017-Jun-25 15:00N 51°48' E 004°39'0 0.0
2017-Jun-25 14:00N 51°48' E 004°39'0 0.0
2017-Jun-25 13:30N 51°48' E 004°39'0 0.0
2017-Jun-25 13:01N 51°48' E 004°39'0 0.0
2017-Jun-25 12:30N 51°48' E 004°39'0 0.0
2017-Jun-25 12:00N 51°48' E 004°39'0 0.0
2017-Jun-25 11:30N 51°48' E 004°39'0 0.0
2017-Jun-25 11:00N 51°48' E 004°39'0 0.0
2017-Jun-25 10:30N 51°48' E 004°39'0 0.0
2017-Jun-25 10:01N 51°48' E 004°39'0 0.0
2017-Jun-25 09:30N 51°48' E 004°39'0 0.0
2017-Jun-25 09:00N 51°48' E 004°39'0 0.0
2017-Jun-25 08:31N 51°48' E 004°39'0 0.0
2017-Jun-25 08:00N 51°48' E 004°39'0 0.0
2017-Jun-25 07:30N 51°48' E 004°39'0 0.0
2017-Jun-25 07:00N 51°48' E 004°39'0 0.0
2017-Jun-25 06:30N 51°48' E 004°39'0 0.0
2017-Jun-25 06:00N 51°48' E 004°39'0 0.0
2017-Jun-25 05:30N 51°48' E 004°39'0 0.0
2017-Jun-25 05:00N 51°48' E 004°39'0 0.0
2017-Jun-25 04:31N 51°48' E 004°39'0 0.0
2017-Jun-25 04:01N 51°48' E 004°39'0 0.0
2017-Jun-25 03:31N 51°48' E 004°39'0 0.0
2017-Jun-25 03:01N 51°48' E 004°39'0 0.0
2017-Jun-25 02:31N 51°48' E 004°39'0 0.0
2017-Jun-25 02:01N 51°48' E 004°39'0 0.0
2017-Jun-25 01:31N 51°48' E 004°39'0 0.0
2017-Jun-25 01:01N 51°48' E 004°39'0 0.0
2017-Jun-25 00:31N 51°48' E 004°39'0 0.0
2017-Jun-25 00:01N 51°48' E 004°39'0 0.0
2017-Jun-24 23:31N 51°48' E 004°39'0 0.0
2017-Jun-24 23:01N 51°48' E 004°39'0 0.0
2017-Jun-24 22:31N 51°48' E 004°39'0 0.0
2017-Jun-24 22:01N 51°48' E 004°39'0 0.0
2017-Jun-24 21:31N 51°48' E 004°39'0 0.0
2017-Jun-24 21:01N 51°48' E 004°39'0 0.0
2017-Jun-24 20:31N 51°48' E 004°39'0 0.0
2017-Jun-24 20:01N 51°48' E 004°39'0 0.0
2017-Jun-24 19:31N 51°48' E 004°39'0 0.0
2017-Jun-24 19:01N 51°48' E 004°39'0 0.0
2017-Jun-24 18:31N 51°48' E 004°39'0 0.0
2017-Jun-24 18:00N 51°48' E 004°39'0 0.0
2017-Jun-24 17:30N 51°48' E 004°39'0 0.0
2017-Jun-24 17:00N 51°48' E 004°39'0 0.0
2017-Jun-24 16:30N 51°48' E 004°39'0 0.0
2017-Jun-24 16:00N 51°48' E 004°39'0 0.0
2017-Jun-24 15:30N 51°48' E 004°39'0 0.0
2017-Jun-24 15:00N 51°48' E 004°39'0 0.0
2017-Jun-24 14:01N 51°48' E 004°39'0 0.0
2017-Jun-24 13:30N 51°48' E 004°39'0 0.0
2017-Jun-24 13:00N 51°48' E 004°39'0 0.0
2017-Jun-24 12:31N 51°48' E 004°39'0 0.0
2017-Jun-24 12:01N 51°48' E 004°39'0 0.0
2017-Jun-24 11:30N 51°48' E 004°39'0 0.0
2017-Jun-24 11:01N 51°48' E 004°39'0 0.0
2017-Jun-24 10:31N 51°48' E 004°39'0 0.0
2017-Jun-24 10:00N 51°48' E 004°39'0 0.0
2017-Jun-24 09:31N 51°48' E 004°39'0 0.0
2017-Jun-24 09:00N 51°48' E 004°39'0 0.0
2017-Jun-24 08:31N 51°48' E 004°39'0 0.0
2017-Jun-24 08:01N 51°48' E 004°39'0 0.0
2017-Jun-24 07:30N 51°48' E 004°39'0 0.0
2017-Jun-24 07:01N 51°48' E 004°39'0 0.0
2017-Jun-24 06:31N 51°48' E 004°39'0 0.0
2017-Jun-24 06:01N 51°48' E 004°39'0 0.0
2017-Jun-24 05:31N 51°48' E 004°39'0 0.0
2017-Jun-24 05:01N 51°48' E 004°39'0 0.0
2017-Jun-24 04:31N 51°48' E 004°39'0 0.0
2017-Jun-24 04:00N 51°48' E 004°39'0 0.0
2017-Jun-24 03:30N 51°48' E 004°39'0 0.0
2017-Jun-24 03:01N 51°48' E 004°39'0 0.0
2017-Jun-24 02:31N 51°48' E 004°39'0 0.0
2017-Jun-24 02:01N 51°48' E 004°39'0 0.0
2017-Jun-24 01:31N 51°48' E 004°39'0 0.0
2017-Jun-24 01:01N 51°48' E 004°39'0 0.0
2017-Jun-24 00:31N 51°48' E 004°39'0 0.0
2017-Jun-24 00:01N 51°48' E 004°39'0 0.0
2017-Jun-23 23:31N 51°48' E 004°39'0 0.0
2017-Jun-23 23:01N 51°48' E 004°39'0 0.0
2017-Jun-23 22:31N 51°48' E 004°39'0 0.0
2017-Jun-23 22:00N 51°48' E 004°39'0 0.0
2017-Jun-23 21:31N 51°48' E 004°39'0 0.0
2017-Jun-23 21:00N 51°48' E 004°39'0 0.0
2017-Jun-23 20:30N 51°48' E 004°39'0 0.0
2017-Jun-23 20:01N 51°48' E 004°39'0 0.0
2017-Jun-23 19:30N 51°48' E 004°39'0 0.0
2017-Jun-23 19:01N 51°48' E 004°39'0 0.0
2017-Jun-23 18:30N 51°48' E 004°39'0 0.0
2017-Jun-23 18:01N 51°48' E 004°39'0 0.0
2017-Jun-23 17:30N 51°48' E 004°39'0 0.0
2017-Jun-23 17:00N 51°48' E 004°39'0 0.0
2017-Jun-23 16:30N 51°48' E 004°39'0 0.0
2017-Jun-23 16:00N 51°48' E 004°39'0 0.0
2017-Jun-23 15:30N 51°48' E 004°39'0 0.0
2017-Jun-23 15:01N 51°48' E 004°39'0 0.0
2017-Jun-23 14:00N 51°48' E 004°39'0 0.0
2017-Jun-23 13:30N 51°48' E 004°39'0 0.0
2017-Jun-23 13:00N 51°48' E 004°39'0 0.0
2017-Jun-23 12:31N 51°48' E 004°39'0 0.0
2017-Jun-23 12:00N 51°48' E 004°39'0 0.0
2017-Jun-23 11:31N 51°48' E 004°39'0 0.0
2017-Jun-23 11:00N 51°48' E 004°39'0 0.0
2017-Jun-23 10:30N 51°48' E 004°39'0 0.0
2017-Jun-23 10:00N 51°48' E 004°39'0 0.0
2017-Jun-23 09:30N 51°48' E 004°39'0 0.0
2017-Jun-23 09:00N 51°48' E 004°39'0 0.0
2017-Jun-23 08:30N 51°48' E 004°39'0 0.0
2017-Jun-23 08:00N 51°48' E 004°39'0 0.0
2017-Jun-23 07:30N 51°48' E 004°39'0 0.0
2017-Jun-23 07:00N 51°48' E 004°39'0 0.0
2017-Jun-23 06:31N 51°48' E 004°39'0 0.0
2017-Jun-23 06:01N 51°48' E 004°39'0 0.0
2017-Jun-23 05:30N 51°48' E 004°39'0 0.0
2017-Jun-23 05:00N 51°48' E 004°39'0 0.0
2017-Jun-23 04:31N 51°48' E 004°39'0 0.0
2017-Jun-23 04:01N 51°48' E 004°39'0 0.0
2017-Jun-23 03:30N 51°48' E 004°39'0 0.0
2017-Jun-23 03:01N 51°48' E 004°39'0 0.0
2017-Jun-23 02:30N 51°48' E 004°39'0 0.0
2017-Jun-23 02:01N 51°48' E 004°39'0 0.0
2017-Jun-23 01:31N 51°48' E 004°39'0 0.0
2017-Jun-23 01:01N 51°48' E 004°39'0 0.0
2017-Jun-23 00:30N 51°48' E 004°39'0 0.0
2017-Jun-23 00:00N 51°48' E 004°39'0 0.0
2017-Jun-22 23:31N 51°48' E 004°39'0 0.0
2017-Jun-22 23:00N 51°48' E 004°39'0 0.0
2017-Jun-22 22:31N 51°48' E 004°39'0 0.0
2017-Jun-22 22:00N 51°48' E 004°39'0 0.0
2017-Jun-22 21:31N 51°48' E 004°39'0 0.0
2017-Jun-22 21:00N 51°48' E 004°39'0 0.0
2017-Jun-22 20:31N 51°48' E 004°39'0 0.0
2017-Jun-22 20:00N 51°48' E 004°39'0 0.0
2017-Jun-22 19:31N 51°48' E 004°39'0 0.0
2017-Jun-22 19:00N 51°48' E 004°39'0 0.0
2017-Jun-22 18:30N 51°48' E 004°39'0 0.0
2017-Jun-22 18:01N 51°48' E 004°39'0 0.0
2017-Jun-22 17:31N 51°48' E 004°39'0 0.0
2017-Jun-22 17:01N 51°48' E 004°39'0 0.0
2017-Jun-22 16:31N 51°48' E 004°39'0 0.0
2017-Jun-22 16:01N 51°48' E 004°39'0 0.0
2017-Jun-22 15:30N 51°48' E 004°39'0 0.0
2017-Jun-22 15:00N 51°48' E 004°39'0 0.0
2017-Jun-22 14:01N 51°48' E 004°39'0 0.0
2017-Jun-22 13:31N 51°48' E 004°39'0 0.0
2017-Jun-22 13:00N 51°48' E 004°39'0 0.0
2017-Jun-22 12:30N 51°48' E 004°39'0 0.0
2017-Jun-22 12:01N 51°48' E 004°39'0 0.0
2017-Jun-22 11:30N 51°48' E 004°39'0 0.0
2017-Jun-22 11:00N 51°48' E 004°39'0 0.0
2017-Jun-22 10:31N 51°48' E 004°39'0 0.0
2017-Jun-22 10:00N 51°48' E 004°39'0 0.0
2017-Jun-22 09:31N 51°48' E 004°39'0 0.0
2017-Jun-22 09:01N 51°48' E 004°39'0 0.0
2017-Jun-22 08:31N 51°48' E 004°39'0 0.0
2017-Jun-22 08:00N 51°48' E 004°39'0 0.0
2017-Jun-22 07:31N 51°48' E 004°39'0 0.0
2017-Jun-22 07:01N 51°48' E 004°39'0 0.0
2017-Jun-22 06:31N 51°48' E 004°39'0 0.0
2017-Jun-22 06:01N 51°48' E 004°39'0 0.0
2017-Jun-22 05:31N 51°48' E 004°39'0 0.0
2017-Jun-22 05:01N 51°48' E 004°39'0 0.0
2017-Jun-22 04:31N 51°48' E 004°39'0 0.0
2017-Jun-22 04:00N 51°48' E 004°39'0 0.0
2017-Jun-22 03:31N 51°48' E 004°39'0 0.0
2017-Jun-22 03:01N 51°48' E 004°39'0 0.0
2017-Jun-22 02:31N 51°48' E 004°39'0 0.0
2017-Jun-22 02:01N 51°48' E 004°39'0 0.0
2017-Jun-22 01:30N 51°48' E 004°39'0 0.0
2017-Jun-22 01:01N 51°48' E 004°39'0 0.0
2017-Jun-22 00:31N 51°48' E 004°39'0 0.0
2017-Jun-22 00:01N 51°48' E 004°39'0 0.0
2017-Jun-21 23:31N 51°48' E 004°39'0 0.0
2017-Jun-21 23:01N 51°48' E 004°39'0 0.0
2017-Jun-21 22:31N 51°48' E 004°39'0 0.0
2017-Jun-21 22:01N 51°48' E 004°39'0 0.0
2017-Jun-21 21:30N 51°48' E 004°39'0 0.0
2017-Jun-21 21:00N 51°48' E 004°39'0 0.0
2017-Jun-21 20:31N 51°48' E 004°39'0 0.0
2017-Jun-21 20:00N 51°48' E 004°39'0 0.0
2017-Jun-21 19:31N 51°48' E 004°39'0 0.2
2017-Jun-21 19:01N 51°48' E 004°39'1 1.0
2017-Jun-21 18:30N 51°47' E 004°38'0 0.0
2017-Jun-21 18:00N 51°47' E 004°38'0 0.0
2017-Jun-21 17:30N 51°47' E 004°38'0 0.0
2017-Jun-21 17:00N 51°47' E 004°38'0 0.0
2017-Jun-21 16:30N 51°47' E 004°38'0 0.0
2017-Jun-21 16:00N 51°47' E 004°38'0 0.0
2017-Jun-21 15:30N 51°47' E 004°38'0 0.0
2017-Jun-21 14:59N 51°47' E 004°38'0 0.0
2017-Jun-21 14:00N 51°47' E 004°38'0 0.0
2017-Jun-21 13:29N 51°47' E 004°38'0 0.0
2017-Jun-21 13:00N 51°47' E 004°38'0 0.0
2017-Jun-21 12:29N 51°47' E 004°38'0 0.0
2017-Jun-21 12:00N 51°47' E 004°38'0 0.0
2017-Jun-21 11:30N 51°47' E 004°38'0 1.0
2017-Jun-21 11:01N 51°48' E 004°38'3 5.3
2017-Jun-21 10:30N 51°49' E 004°34'3 6.2
2017-Jun-21 10:00N 51°50' E 004°30'4 7.2
2017-Jun-21 09:30N 51°51' E 004°24'4 7.1
2017-Jun-21 09:00N 51°53' E 004°20'3 6.5
2017-Jun-21 08:30N 51°55' E 004°15'4 7.5
2017-Jun-21 08:00N 51°57' E 004°10'4 8.1
2017-Jun-21 07:30N 51°59' E 004°05'612.2
2017-Jun-21 07:00N 51°60' E 003°55'4 8.9
2017-Jun-21 06:30N 52°00' E 003°48'3 5.8
2017-Jun-21 06:00N 52°03' E 003°47'5 9.2
2017-Jun-21 05:30N 52°08' E 003°46'510.0
2017-Jun-21 05:00N 52°13' E 003°47'510.2
2017-Jun-21 04:30N 52°18' E 003°47'510.4
2017-Jun-21 04:00N 52°23' E 003°49'510.1
2017-Jun-21 03:30N 52°28' E 003°50'5 9.2
2017-Jun-21 03:00N 52°33' E 003°52'5 9.6
2017-Jun-21 02:30N 52°37' E 003°53'5 9.4
2017-Jun-21 02:00N 52°42' E 003°55'5 9.5
2017-Jun-21 01:30N 52°46' E 003°56'5 9.4
2017-Jun-21 01:00N 52°51' E 003°58'510.0
2017-Jun-21 00:30N 52°56' E 004°00'611.7
2017-Jun-21 00:00N 53°00' E 004°07'713.2
2017-Jun-20 23:30N 53°05' E 004°15'713.5
2017-Jun-20 23:01N 53°09' E 004°23'713.6
2017-Jun-20 22:30N 53°15' E 004°29'714.5
2017-Jun-20 22:00N 53°22' E 004°34'714.5
2017-Jun-20 21:30N 53°28' E 004°40'815.2
2017-Jun-20 21:00N 53°31' E 004°52'815.3
2017-Jun-20 20:29N 53°34' E 005°04'715.0
2017-Jun-20 20:00N 53°36' E 005°15'714.7
2017-Jun-20 19:30N 53°39' E 005°27'8613.2
2017-Jun-20 12:59N 54°01' E 007°48'714.5
2017-Jun-20 12:29N 54°01' E 008°00'714.4
2017-Jun-20 12:00N 54°00' E 008°12'713.5
2017-Jun-20 11:30N 53°59' E 008°23'816.0
2017-Jun-20 11:00N 53°58' E 008°37'815.3
2017-Jun-20 10:30N 53°52' E 008°45'713.1
2017-Jun-20 10:00N 53°51' E 008°56'713.1
2017-Jun-20 09:30N 53°53' E 009°06'2 3.3
2017-Jun-20 09:00N 53°54' E 009°09'0 0.0
2017-Jun-20 08:30N 53°54' E 009°09'0 0.0
2017-Jun-20 08:00N 53°54' E 009°09'0 0.8
2017-Jun-20 07:30N 53°54' E 009°09'3 6.1
2017-Jun-20 07:00N 53°56' E 009°13'4 8.6
2017-Jun-20 06:30N 53°59' E 009°17'4 8.8
2017-Jun-20 06:00N 54°04' E 009°19'11 7.9
2017-Jun-20 04:34N 54°12' E 009°33'2 8.8
2017-Jun-20 04:20N 54°13' E 009°35'41 4.7
2017-Jun-19 19:31N 54°34' E 010°36'1 6.8
2017-Jun-19 19:26N 54°35' E 010°37'3 6.9
2017-Jun-19 18:59N 54°35' E 010°43'5 6.5
2017-Jun-19 18:15N 54°35' E 010°51'2 6.0
2017-Jun-19 17:56N 54°35' E 010°54'3 6.0
2017-Jun-19 17:30N 54°36' E 010°58'4 8.7
2017-Jun-19 17:00N 54°36' E 011°06'713.1
2017-Jun-19 16:30N 54°34' E 011°17'714.0
2017-Jun-19 16:01N 54°32' E 011°28'914.2
2017-Jun-19 15:23N 54°28' E 011°42'1113.1
2017-Jun-19 14:32N 54°27' E 012°01'612.4
2017-Jun-19 14:00N 54°28' E 012°12'713.6
2017-Jun-19 13:30N 54°35' E 012°15'612.6
2017-Jun-19 13:00N 54°39' E 012°22'2013.3
2017-Jun-19 11:29N 54°50' E 012°52'613.4
2017-Jun-19 11:00N 54°52' E 013°03'713.6
2017-Jun-19 10:30N 54°54' E 013°14'713.5
2017-Jun-19 09:59N 54°55' E 013°26'612.7
2017-Jun-19 09:30N 54°53' E 013°36'613.0
2017-Jun-19 09:00N 54°49' E 013°45'713.3
2017-Jun-19 08:30N 54°45' E 013°54'713.1
2017-Jun-19 08:00N 54°42' E 014°04'713.5
2017-Jun-19 07:30N 54°40' E 014°15'713.5
2017-Jun-19 07:00N 54°38' E 014°27'713.5
2017-Jun-19 06:30N 54°39' E 014°38'713.6
2017-Jun-19 06:00N 54°40' E 014°49'713.6
2017-Jun-19 05:30N 54°41' E 015°01'713.5
2017-Jun-19 05:00N 54°42' E 015°13'713.6
2017-Jun-19 04:30N 54°43' E 015°24'713.6
2017-Jun-19 04:00N 54°44' E 015°36'713.5
2017-Jun-19 03:30N 54°45' E 015°47'713.6
2017-Jun-19 03:00N 54°47' E 015°59'813.4
2017-Jun-19 02:23N 54°48' E 016°13'613.4
2017-Jun-19 01:54N 54°49' E 016°24'913.5
2017-Jun-19 01:14N 54°50' E 016°40'413.3
2017-Jun-19 00:57N 54°50' E 016°47'613.2
2017-Jun-19 00:27N 54°52' E 016°58'3912.6
2017-Jun-18 21:22N 54°60' E 018°04'512.3
2017-Jun-18 21:00N 54°60' E 018°12'612.2
2017-Jun-18 20:30N 55°00' E 018°22'612.2
2017-Jun-18 20:00N 55°00' E 018°33'510.9
2017-Jun-18 19:30N 54°58' E 018°41'612.6
2017-Jun-18 19:00N 54°53' E 018°48'713.2
2017-Jun-18 18:30N 54°48' E 018°56'613.0
2017-Jun-18 18:00N 54°41' E 018°58'713.7
2017-Jun-18 17:30N 54°35' E 018°53'713.9
2017-Jun-18 17:00N 54°30' E 018°45'611.8
2017-Jun-18 16:31N 54°25' E 018°39'2 3.9
2017-Jun-18 16:00N 54°24' E 018°41'0 0.0
2017-Jun-18 15:30N 54°24' E 018°41'0 0.0
2017-Jun-18 15:00N 54°24' E 018°41'0 0.0
2017-Jun-18 14:00N 54°24' E 018°41'0 0.0
2017-Jun-18 13:30N 54°24' E 018°41'0 0.0
2017-Jun-18 13:00N 54°24' E 018°41'0 0.0
2017-Jun-18 12:30N 54°24' E 018°41'0 0.0
2017-Jun-18 12:00N 54°24' E 018°41'0 0.0
2017-Jun-18 11:30N 54°24' E 018°41'0 0.0
2017-Jun-18 11:00N 54°24' E 018°41'0 0.0
2017-Jun-18 10:30N 54°24' E 018°41'0 0.0
2017-Jun-18 10:00N 54°24' E 018°41'0 0.0
2017-Jun-18 09:30N 54°24' E 018°41'0 0.0
2017-Jun-18 09:00N 54°24' E 018°41'0 0.0
2017-Jun-18 08:27N 54°24' E 018°41'0 0.0
2017-Jun-18 08:00N 54°24' E 018°41'0 0.0
2017-Jun-18 07:30N 54°24' E 018°41'0 0.0
2017-Jun-18 07:00N 54°24' E 018°41'0 0.0
2017-Jun-18 06:30N 54°24' E 018°41'0 0.0
2017-Jun-18 06:00N 54°24' E 018°41'0 0.0
2017-Jun-18 05:30N 54°24' E 018°41'0 0.0
2017-Jun-18 05:00N 54°24' E 018°41'0 0.0
2017-Jun-18 04:30N 54°24' E 018°41'0 0.0
2017-Jun-18 04:00N 54°24' E 018°41'0 0.0
2017-Jun-18 03:30N 54°24' E 018°41'0 0.0
2017-Jun-18 03:00N 54°24' E 018°41'0 0.0
2017-Jun-18 02:30N 54°24' E 018°41'0 0.0
2017-Jun-18 02:00N 54°24' E 018°41'0 0.0
2017-Jun-18 01:30N 54°24' E 018°41'0 0.0
2017-Jun-18 01:00N 54°24' E 018°41'0 0.0
2017-Jun-18 00:30N 54°24' E 018°41'0 0.0
2017-Jun-18 00:00N 54°24' E 018°41'0 0.0
2017-Jun-17 23:30N 54°24' E 018°41'0 0.0
2017-Jun-17 23:00N 54°24' E 018°41'0 0.0
2017-Jun-17 22:30N 54°24' E 018°41'0 0.0
2017-Jun-17 22:00N 54°24' E 018°41'0 0.0
2017-Jun-17 21:30N 54°24' E 018°41'0 0.0
2017-Jun-17 21:00N 54°24' E 018°41'0 0.0
2017-Jun-17 20:30N 54°24' E 018°41'0 0.0
2017-Jun-17 20:00N 54°24' E 018°41'0 0.0
2017-Jun-17 19:30N 54°24' E 018°41'0 0.0
2017-Jun-17 19:00N 54°24' E 018°41'0 0.0
2017-Jun-17 18:30N 54°24' E 018°41'0 0.0
2017-Jun-17 18:00N 54°24' E 018°41'0 0.0
2017-Jun-17 17:30N 54°24' E 018°41'0 0.0
2017-Jun-17 17:00N 54°24' E 018°41'0 0.0
2017-Jun-17 16:30N 54°24' E 018°41'0 0.0
2017-Jun-17 16:00N 54°24' E 018°41'0 0.0
2017-Jun-17 15:30N 54°24' E 018°41'0 0.0
2017-Jun-17 15:00N 54°24' E 018°41'0 0.0
2017-Jun-17 14:30N 54°24' E 018°41'0 0.0
2017-Jun-17 13:30N 54°24' E 018°41'0 0.0
2017-Jun-17 13:00N 54°24' E 018°41'0 0.0
2017-Jun-17 12:30N 54°24' E 018°41'0 0.0
2017-Jun-17 12:00N 54°24' E 018°41'0 0.0
2017-Jun-17 11:30N 54°24' E 018°41'0 0.0
2017-Jun-17 11:00N 54°24' E 018°41'0 0.0
2017-Jun-17 10:30N 54°24' E 018°41'0 0.0
2017-Jun-17 10:00N 54°24' E 018°41'0 0.0
2017-Jun-17 09:30N 54°24' E 018°41'0 0.0
2017-Jun-17 09:00N 54°24' E 018°41'0 0.0
2017-Jun-17 08:30N 54°24' E 018°41'0 0.0
2017-Jun-17 08:00N 54°24' E 018°41'0 0.0
2017-Jun-17 07:30N 54°24' E 018°41'0 0.0
2017-Jun-17 07:00N 54°24' E 018°41'0 0.0
2017-Jun-17 06:30N 54°24' E 018°41'0 0.0
2017-Jun-17 06:00N 54°24' E 018°41'0 0.0
2017-Jun-17 05:30N 54°24' E 018°41'0 0.0
2017-Jun-17 05:00N 54°24' E 018°41'0 0.0
2017-Jun-17 04:30N 54°24' E 018°41'0 0.0
2017-Jun-17 04:00N 54°24' E 018°41'0 0.0
2017-Jun-17 03:30N 54°24' E 018°41'0 0.0
2017-Jun-17 03:00N 54°24' E 018°41'0 0.0
2017-Jun-17 02:30N 54°24' E 018°41'0 0.0
2017-Jun-17 01:57N 54°24' E 018°41'0 0.0
2017-Jun-17 01:30N 54°24' E 018°41'0 0.0
2017-Jun-17 01:00N 54°24' E 018°41'0 0.0
2017-Jun-17 00:30N 54°24' E 018°41'0 0.0
2017-Jun-17 00:00N 54°24' E 018°41'0 0.0
2017-Jun-16 23:30N 54°24' E 018°41'0 0.0
2017-Jun-16 23:00N 54°24' E 018°41'0 0.0
2017-Jun-16 22:30N 54°24' E 018°41'0 0.0
2017-Jun-16 22:00N 54°24' E 018°41'0 0.0
2017-Jun-16 21:30N 54°24' E 018°41'0 0.0
2017-Jun-16 21:00N 54°24' E 018°41'0 0.0
2017-Jun-16 20:30N 54°24' E 018°41'0 0.0
2017-Jun-16 20:00N 54°24' E 018°41'0 0.0
2017-Jun-16 19:30N 54°24' E 018°41'0 0.0
2017-Jun-16 19:00N 54°24' E 018°41'0 0.5
2017-Jun-16 18:31N 54°24' E 018°41'3 5.3
2017-Jun-16 18:00N 54°27' E 018°40'611.6
2017-Jun-16 17:30N 54°31' E 018°46'612.4
2017-Jun-16 17:00N 54°36' E 018°53'611.7
2017-Jun-16 16:31N 54°41' E 018°57'611.1
2017-Jun-16 16:01N 54°47' E 019°00'713.5
2017-Jun-16 15:31N 54°53' E 018°59'714.3
2017-Jun-16 15:00N 55°00' E 018°57'714.3
2017-Jun-16 14:30N 55°07' E 018°55'  

Dump ship's entire track history